EW1760 Leonardtown MD US current weather conditions

sailwx.info

Wind from 294

Air temperature 6.7° C
Dewpoint 6.4° C

Last reported at 2019-Dec-14 12:00 UTC.
Time now 2019-Dec-14 12:36 UTC

Location: N 38°14' W 076°41'.
View on Google Maps.

See reports from other nearby stations

  
Tides and Currents Weather Stations Pressure Air Temp Water Temp Dewpoint Dewpoint Depression Visibility Wind Speed Wind Dir Waves Ship Positions
date/time (UTC)wind fromknots sea level pressurealtimeterstation pressurevisibilityair tempwater tempwave heightnotes
2019-Dec-14 12:00 294 6.7
2019-Dec-14 10:47 315 5 gusting 6 6.7
2019-Dec-14 10:31 323 3 gusting 4 6.7
2019-Dec-14 10:17 305 2 gusting 3 6.7
2019-Dec-14 10:01 312 1 gusting 3 6.7
2019-Dec-14 09:48 333 0 gusting 2 6.7
2019-Dec-14 09:31 336 6.7
2019-Dec-14 09:02 331 4 gusting 6 6.7
2019-Dec-14 08:46 345 2 gusting 5 6.7
2019-Dec-14 08:31 298 0 gusting 1 6.7
2019-Dec-14 08:16 298 6.7
2019-Dec-14 08:01 298 6.7
2019-Dec-14 07:46 298 1 gusting 5 6.7
2019-Dec-14 07:31 318 1 gusting 4 6.7
2019-Dec-14 07:16 335 3 gusting 6 6.7
2019-Dec-14 07:01 317 4 gusting 6 6.7
2019-Dec-14 06:46 312 3 gusting 5 6.7
2019-Dec-14 06:31 305 2 gusting 6 6.1
2019-Dec-14 06:15 275 3 gusting 6 6.7
2019-Dec-14 06:00 300 1 gusting 3 7.2
2019-Dec-14 05:45 346 6.7
2019-Dec-14 05:30 347 6.7
2019-Dec-14 05:15 339 1 gusting 4 6.7
2019-Dec-14 05:00 315 2 gusting 5 6.7
2019-Dec-14 04:45 355 3 gusting 6 6.7
2019-Dec-14 04:30 346 4 gusting 6 6.7
2019-Dec-14 04:15 342 6 gusting 7 6.7
2019-Dec-14 04:03 355 4 gusting 7 6.7
2019-Dec-14 03:47 355 5 gusting 6 6.7
2019-Dec-14 03:31 345 5 gusting 7 6.7
2019-Dec-14 03:16 338 6 gusting 7 6.7
2019-Dec-14 03:01 322 6 gusting 8 6.7
2019-Dec-14 02:48 319 5 gusting 7 6.7
2019-Dec-14 02:34 332 6.7
2019-Dec-14 02:18 333 6.7
2019-Dec-14 02:01 333 6.7
2019-Dec-14 01:47 333 6.7
2019-Dec-14 01:31 333 6.7
2019-Dec-14 01:17 280 3 gusting 5 7.8
2019-Dec-14 01:01 022 7.2
2019-Dec-14 00:45 022 0 gusting 2 6.7
2019-Dec-14 00:31 005 1 gusting 5 6.7
2019-Dec-14 00:16 342 5 gusting 6 6.7
2019-Dec-14 00:01 014 0 gusting 2 6.7
2019-Dec-13 23:46 360 0 gusting 4 6.7
2019-Dec-13 23:30 360 6.1
2019-Dec-13 23:15 360 0 gusting 2 6.1
2019-Dec-13 23:00 360 4 gusting 7 6.1
2019-Dec-13 22:45 005 4 gusting 6 6.1
2019-Dec-13 22:31 339 2 gusting 4 6.7
2019-Dec-13 22:15 005 1 gusting 4 6.1
2019-Dec-13 22:00 013 6.1
2019-Dec-13 21:45 011 2 gusting 5 6.1
2019-Dec-13 21:30 009 5.6
2019-Dec-13 21:15 005 5.6
2019-Dec-13 21:04 355 3 gusting 5 5.6
2019-Dec-13 20:47 355 5.0
2019-Dec-13 20:32 355 5.0
2019-Dec-13 20:17 005 1 gusting 3 5.0
2019-Dec-13 20:02 038 5.0
2019-Dec-13 19:48 018 5.0
2019-Dec-13 19:33 360 5.0
2019-Dec-13 19:16 005 5.0
2019-Dec-13 19:02 355 5.0
2019-Dec-13 18:49 355 1 gusting 3 4.4
2019-Dec-13 18:31 355 4.4
2019-Dec-13 18:18 350 4.4
2019-Dec-13 18:01 355 2 gusting 6 4.4
2019-Dec-13 17:47 355 3 gusting 5 4.4
2019-Dec-13 17:31 347 2 gusting 5 3.9
2019-Dec-13 17:16 355 1 gusting 3 3.9
2019-Dec-13 17:01 005 2 gusting 6 3.9
2019-Dec-13 16:46 010 3 gusting 6 3.3
2019-Dec-13 16:31 360 2 gusting 6 3.3
2019-Dec-13 16:15 005 1 gusting 6 3.3
2019-Dec-13 16:01 005 2 gusting 6 3.3
2019-Dec-13 15:46 355 5 gusting 7 3.3
2019-Dec-13 15:31 330 4 gusting 6 3.3
2019-Dec-13 15:15 005 2 gusting 6 3.3
2019-Dec-13 15:00 005 2 gusting 6 3.3
2019-Dec-13 14:45 005 2 gusting 5 3.3
2019-Dec-13 14:30 360 1 gusting 4 2.8
2019-Dec-13 14:15 355 3 gusting 6 2.8
2019-Dec-13 14:00 005 2 gusting 6 2.8
2019-Dec-13 13:45 360 4 gusting 7 2.8
2019-Dec-13 13:30 350 5 gusting 8 2.8
2019-Dec-13 13:15 333 6 gusting 8 3.3
2019-Dec-13 13:00 321 5 gusting 6 3.3
2019-Dec-13 12:45 301 0 gusting 3 3.9
2019-Dec-13 12:30 303 2 gusting 4 3.9
2019-Dec-13 12:17 355 3.3
2019-Dec-13 11:47 005 2.8
2019-Dec-13 11:32 034 2.8
2019-Dec-13 11:16 069 0 gusting 5 2.2
2019-Dec-13 10:46 005 1 gusting 6 1.7
2019-Dec-13 10:32 022 0 gusting 5 1.1
2019-Dec-13 10:17 005 1 gusting 4 0.6
2019-Dec-13 10:02 005 1 gusting 6 0.6
2019-Dec-13 09:47 005 2 gusting 5 0.6
2019-Dec-13 09:31 360 4 gusting 7 0.6
2019-Dec-13 09:16 005 4 gusting 7 1.1
2019-Dec-13 09:01 005 2 gusting 5 0.6
2019-Dec-13 08:46 005 1 gusting 5 0.6
2019-Dec-13 08:30 005 2 gusting 6 0.6
2019-Dec-13 08:16 005 3 gusting 6 0.6
2019-Dec-13 08:01 005 2 gusting 6 1.1
2019-Dec-13 07:46 005 2 gusting 6 1.1
2019-Dec-13 07:30 005 0 gusting 1 1.1
2019-Dec-13 07:00 011 1.1
2019-Dec-13 06:45 018 0.6
2019-Dec-13 06:33 018 0.6
2019-Dec-13 06:17 019 0.6
2019-Dec-13 06:02 026 0.6
2019-Dec-13 05:46 026 1.1
2019-Dec-13 05:34 026 1.1
2019-Dec-13 05:02 028 0.6
2019-Dec-13 04:48 024 1.1
2019-Dec-13 04:32 021 1.1
2019-Dec-13 04:17 019 0.6
2019-Dec-13 04:00 019 1.1
2019-Dec-13 03:47 019 1.1
2019-Dec-13 03:31 019 1.1
2019-Dec-13 03:16 015 1.1
2019-Dec-13 03:01 023 1.1
2019-Dec-13 02:47 024 1.1
2019-Dec-13 02:31 025 1.1
2019-Dec-13 02:16 025 1.1
2019-Dec-13 02:01 024 1.1
2019-Dec-13 01:46 025 1.1
2019-Dec-13 01:30 022 0 gusting 2 1.1
2019-Dec-13 01:18 026 1 gusting 4 1.1
2019-Dec-13 01:01 038 1.1
2019-Dec-13 00:47 121 1.1
2019-Dec-13 00:30 122 1.1
2019-Dec-13 00:16 137 0.6
2019-Dec-13 00:02 141 0.6
2019-Dec-12 23:45 141 0.6
2019-Dec-12 23:31 141 0.6
2019-Dec-12 23:17 141 1.1
2019-Dec-12 23:01 141 1.1
2019-Dec-12 22:46 141 1.1
2019-Dec-12 22:31 141 1.7
2019-Dec-12 22:15 141 1.7
2019-Dec-12 22:01 173 2.2
2019-Dec-12 21:46 179 2.8
2019-Dec-12 21:30 173 3.3
2019-Dec-12 21:15 179 3.9
2019-Dec-12 21:01 190 3.9
2019-Dec-12 20:47 167 0 gusting 5 3.9
2019-Dec-12 20:30 167 5 gusting 8 3.3
2019-Dec-12 20:15 161 4 gusting 8 3.3
2019-Dec-12 20:00 166 6 gusting 9 2.8
2019-Dec-12 19:47 165 6 gusting 8 2.8
2019-Dec-12 19:30 171 5 gusting 7 2.8
2019-Dec-12 19:15 161 4 gusting 7 2.8
2019-Dec-12 19:01 167 4 gusting 7 2.8
2019-Dec-12 18:45 157 4 gusting 6 2.8
2019-Dec-12 18:31 159 3 gusting 6 2.8
2019-Dec-12 18:16 170 2 gusting 6 2.2
2019-Dec-12 18:00 176 3 gusting 6 2.2
2019-Dec-12 17:45 168 4 gusting 5 2.8
2019-Dec-12 17:31 183 2 gusting 5 2.2
2019-Dec-12 17:15 189 3 gusting 6 2.2
2019-Dec-12 17:00 348 0 gusting 4 2.8
2019-Dec-12 16:46 180 2.8
2019-Dec-12 16:30 028 0 gusting 4 2.8
2019-Dec-12 16:15 347 2.2
2019-Dec-12 16:00 033 0 gusting 3 2.2
2019-Dec-12 15:45 173 1 gusting 4 2.2
2019-Dec-12 15:30 151 2.2
2019-Dec-12 15:15 030 0 gusting 3 2.2
2019-Dec-12 15:00 159 2 gusting 6 1.7
2019-Dec-12 14:45 178 0 gusting 5 1.7
2019-Dec-12 14:30 044 1.7
2019-Dec-12 14:15 017 1.7
2019-Dec-12 14:00 037 1 gusting 5 1.1
2019-Dec-12 13:45 036 1 gusting 4 1.1
2019-Dec-12 13:30 073 0.6
2019-Dec-12 13:15 013 -0.0
2019-Dec-12 13:01 024 0 gusting 3 -0.6
2019-Dec-12 12:46 056 -1.1
2019-Dec-12 12:32 056 -0.6
2019-Dec-12 12:17 005 -0.6
2019-Dec-12 12:03 012 -0.6